DAL50 CYHZ-EIDW
Flight info
| Callsign | DAL50 |
|---|---|
| Flight time | N/A |
| Altitude | 35000 |
| Route | IGTAS DCT NOTOP DCT JOOPY/M078F360 DCT 49N050W 51N040W 53N030W 54N020W DCT DOGAL DCT BEXET/N0453F370 DCT DEVOL DCT OLAPO OLAPO3R |
| Aircraft | A320/M-SDE3FGHIRWY/LB1 |
Departure
| Time | N/A |
|---|---|
| Airport | Halifax / Stanfield International Airport (CYHZ) |
Arrival
| Time | 2026-05-03 20:27 |
|---|---|
| Airport | Dublin Airport (EIDW) |
| Time | Latitude | Longitude | Altitude | Speed | Heading |
|---|---|---|---|---|---|
| 2026-05-03 20:15 | 53.69730 | -6.71447 | 8015 ft | 253 kts | 271° |
| 2026-05-03 20:15 | 53.69665 | -6.74409 | 8018 ft | 254 kts | 264° |
| 2026-05-03 20:15 | 53.69178 | -6.77275 | 8022 ft | 256 kts | 246° |
| 2026-05-03 20:15 | 53.68279 | -6.79875 | 8023 ft | 257 kts | 239° |
| 2026-05-03 20:16 | 53.67331 | -6.82432 | 8018 ft | 257 kts | 239° |
| 2026-05-03 20:16 | 53.66381 | -6.84994 | 8016 ft | 257 kts | 239° |
| 2026-05-03 20:16 | 53.65429 | -6.87548 | 8013 ft | 257 kts | 238° |
| 2026-05-03 20:16 | 53.64270 | -6.89825 | 8016 ft | 259 kts | 220° |
| 2026-05-03 20:17 | 53.62762 | -6.91487 | 8015 ft | 259 kts | 206° |
| 2026-05-03 20:17 | 53.61154 | -6.92847 | 8014 ft | 258 kts | 205° |
| 2026-05-03 20:17 | 53.59430 | -6.93633 | 8010 ft | 257 kts | 180° |
| 2026-05-03 20:17 | 53.57709 | -6.93114 | 8013 ft | 253 kts | 154° |
| 2026-05-03 20:18 | 53.56299 | -6.91424 | 8015 ft | 249 kts | 129° |
| 2026-05-03 20:18 | 53.55440 | -6.88951 | 7831 ft | 244 kts | 105° |
| 2026-05-03 20:18 | 53.55188 | -6.86171 | 7395 ft | 243 kts | 93° |
| 2026-05-03 20:18 | 53.55048 | -6.83409 | 7001 ft | 239 kts | 93° |
| 2026-05-03 20:19 | 53.54902 | -6.80582 | 6721 ft | 238 kts | 93° |
| 2026-05-03 20:19 | 53.54758 | -6.77825 | 6448 ft | 236 kts | 93° |
| 2026-05-03 20:19 | 53.54612 | -6.75079 | 6190 ft | 234 kts | 93° |
| 2026-05-03 20:19 | 53.54466 | -6.72339 | 5933 ft | 234 kts | 93° |
| 2026-05-03 20:20 | 53.54096 | -6.69700 | 5654 ft | 235 kts | 117° |
| 2026-05-03 20:20 | 53.52945 | -6.67758 | 5402 ft | 240 kts | 151° |
| 2026-05-03 20:20 | 53.51305 | -6.67208 | 4902 ft | 247 kts | 182° |
| 2026-05-03 20:20 | 53.49576 | -6.67480 | 4253 ft | 250 kts | 184° |
| 2026-05-03 20:21 | 53.47883 | -6.67496 | 4035 ft | 239 kts | 164° |
| 2026-05-03 20:21 | 53.46477 | -6.66222 | 4002 ft | 222 kts | 131° |
| 2026-05-03 20:21 | 53.45743 | -6.64140 | 4006 ft | 199 kts | 101° |
| 2026-05-03 20:21 | 53.45523 | -6.61901 | 4001 ft | 193 kts | 93° |
| 2026-05-03 20:22 | 53.45395 | -6.59679 | 3869 ft | 191 kts | 92° |
| 2026-05-03 20:22 | 53.45280 | -6.57480 | 3677 ft | 187 kts | 92° |
| 2026-05-03 20:22 | 53.45168 | -6.55340 | 3407 ft | 180 kts | 92° |
| 2026-05-03 20:22 | 53.45063 | -6.53334 | 3196 ft | 168 kts | 92° |
| 2026-05-03 20:23 | 53.44963 | -6.51428 | 2967 ft | 156 kts | 92° |
| 2026-05-03 20:23 | 53.44871 | -6.49678 | 2763 ft | 146 kts | 92° |
| 2026-05-03 20:23 | 53.44786 | -6.48062 | 2577 ft | 138 kts | 92° |
| 2026-05-03 20:23 | 53.44703 | -6.46483 | 2399 ft | 135 kts | 92° |
| 2026-05-03 20:24 | 53.44622 | -6.44929 | 2221 ft | 133 kts | 93° |
| 2026-05-03 20:24 | 53.44539 | -6.43380 | 2050 ft | 134 kts | 92° |
| 2026-05-03 20:24 | 53.44457 | -6.41830 | 1869 ft | 133 kts | 92° |
| 2026-05-03 20:24 | 53.44374 | -6.40286 | 1692 ft | 133 kts | 92° |
| 2026-05-03 20:25 | 53.44292 | -6.38743 | 1517 ft | 133 kts | 93° |
| 2026-05-03 20:25 | 53.44209 | -6.37200 | 1341 ft | 133 kts | 92° |
| 2026-05-03 20:25 | 53.44126 | -6.35661 | 1163 ft | 132 kts | 93° |
| 2026-05-03 20:25 | 53.44043 | -6.34125 | 989 ft | 132 kts | 93° |
| 2026-05-03 20:26 | 53.43961 | -6.32594 | 815 ft | 132 kts | 93° |
| 2026-05-03 20:26 | 53.43878 | -6.31064 | 640 ft | 132 kts | 93° |
| 2026-05-03 20:26 | 53.43795 | -6.29531 | 464 ft | 132 kts | 94° |
| 2026-05-03 20:26 | 53.43712 | -6.28002 | 291 ft | 132 kts | 94° |
| 2026-05-03 20:27 | 53.43633 | -6.26577 | 228 ft | 110 kts | 95° |
| 2026-05-03 20:27 | 53.43580 | -6.25596 | 224 ft | 42 kts | 95° |
| 2026-05-03 20:27 | 53.43552 | -6.25333 | 224 ft | 20 kts | 106° |
| 2026-05-03 20:27 | 53.43503 | -6.25143 | 225 ft | 15 kts | 120° |
| 2026-05-03 20:28 | 53.43471 | -6.25053 | 225 ft | 8 kts | 121° |
| 2026-05-03 20:28 | 53.43446 | -6.24982 | 225 ft | 7 kts | 121° |
| 2026-05-03 20:28 | 53.43423 | -6.24921 | 226 ft | 6 kts | 121° |
| 2026-05-03 20:28 | 53.43399 | -6.24849 | 225 ft | 10 kts | 118° |
| 2026-05-03 20:29 | 53.43364 | -6.24716 | 225 ft | 14 kts | 105° |
| 2026-05-03 20:29 | 53.43352 | -6.24513 | 225 ft | 19 kts | 95° |
| 2026-05-03 20:29 | 53.43262 | -6.24398 | 226 ft | 19 kts | 184° |
| 2026-05-03 20:29 | 53.43194 | -6.24543 | 225 ft | 17 kts | 272° |
| 2026-05-03 20:30 | 53.43202 | -6.24678 | 226 ft | 18 kts | 276° |
| 2026-05-03 20:30 | 53.43210 | -6.24865 | 225 ft | 16 kts | 274° |
| 2026-05-03 20:30 | 53.43218 | -6.25053 | 225 ft | 16 kts | 274° |
| 2026-05-03 20:30 | 53.43210 | -6.25143 | 225 ft | 3 kts | 226° |
| 2026-05-03 20:31 | 53.43190 | -6.25146 | 225 ft | 3 kts | 182° |
| 2026-05-03 20:31 | 53.43157 | -6.25148 | 225 ft | 7 kts | 183° |
| 2026-05-03 20:31 | 53.43128 | -6.25154 | 226 ft | 0 kts | 186° |